Map

Track Data

SID SEASON NUMBER BASIN SUBBASIN NAME ISO_TIME NATURE LAT LON WMO_WIND WMO_PRES WMO_AGENCY TRACK_TYPE DIST2LAND LANDFALL IFLAG USA_AGENCY USA_ATCF_ID USA_LAT USA_LON USA_RECORD USA_STATUS USA_WIND USA_PRES USA_SSHS USA_R34_NE USA_R34_SE USA_R34_SW USA_R34_NW USA_R50_NE USA_R50_SE USA_R50_SW USA_R50_NW USA_R64_NE USA_R64_SE USA_R64_SW USA_R64_NW USA_POCI USA_ROCI USA_RMW USA_EYE TOKYO_LAT TOKYO_LON TOKYO_GRADE TOKYO_WIND TOKYO_PRES TOKYO_R50_DIR TOKYO_R50_LONG TOKYO_R50_SHORT TOKYO_R30_DIR TOKYO_R30_LONG TOKYO_R30_SHORT TOKYO_LAND CMA_LAT CMA_LON CMA_CAT CMA_WIND CMA_PRES HKO_LAT HKO_LON HKO_CAT HKO_WIND HKO_PRES NEWDELHI_LAT NEWDELHI_LON NEWDELHI_GRADE NEWDELHI_WIND NEWDELHI_PRES NEWDELHI_CI NEWDELHI_DP NEWDELHI_POCI REUNION_LAT REUNION_LON REUNION_TYPE REUNION_WIND REUNION_PRES REUNION_TNUM REUNION_CI REUNION_RMW REUNION_R34_NE REUNION_R34_SE REUNION_R34_SW REUNION_R34_NW REUNION_R50_NE REUNION_R50_SE REUNION_R50_SW REUNION_R50_NW REUNION_R64_NE REUNION_R64_SE REUNION_R64_SW REUNION_R64_NW BOM_LAT BOM_LON BOM_TYPE BOM_WIND BOM_PRES BOM_TNUM BOM_CI BOM_RMW BOM_R34_NE BOM_R34_SE BOM_R34_SW BOM_R34_NW BOM_R50_NE BOM_R50_SE BOM_R50_SW BOM_R50_NW BOM_R64_NE BOM_R64_SE BOM_R64_SW BOM_R64_NW BOM_ROCI BOM_POCI BOM_EYE BOM_POS_METHOD BOM_PRES_METHOD NADI_LAT NADI_LON NADI_CAT NADI_WIND NADI_PRES WELLINGTON_LAT WELLINGTON_LON WELLINGTON_WIND WELLINGTON_PRES DS824_LAT DS824_LON DS824_STAGE DS824_WIND DS824_PRES TD9636_LAT TD9636_LON TD9636_STAGE TD9636_WIND TD9636_PRES TD9635_LAT TD9635_LON TD9635_WIND TD9635_PRES TD9635_ROCI NEUMANN_LAT NEUMANN_LON NEUMANN_CLASS NEUMANN_WIND NEUMANN_PRES MLC_LAT MLC_LON MLC_CLASS MLC_WIND MLC_PRES USA_GUST BOM_GUST BOM_GUST_PER REUNION_GUST REUNION_GUST_PER USA_SEAHGT USA_SEARAD_NE USA_SEARAD_SE USA_SEARAD_SW USA_SEARAD_NW STORM_SPEED STORM_DIR
1986240N24160 1986 86 WP MM NOT_NAMED 1986-08-28 06:00:00 TS 24.0000 160.000 1004 tokyo main 2248 2248 _O____________ -1 24.0000 160.000 2 1004 0 0 0 5 178
1986240N24160 1986 86 WP MM NOT_NAMED 1986-08-28 09:00:00 TS 23.7500 160.000 main 2263 2263 _P____________ -1 23.7500 160.000 2 1004 0 0 5 178
1986240N24160 1986 86 WP MM NOT_NAMED 1986-08-28 12:00:00 TS 23.5000 160.000 1004 tokyo main 2285 2285 _O____________ -1 23.5000 160.000 2 1004 0 0 0 5 178
1986240N24160 1986 86 WP MM NOT_NAMED 1986-08-28 15:00:00 TS 23.2500 160.000 main 2299 2299 _P____________ -1 23.2500 160.000 2 1004 0 0 5 178
1986240N24160 1986 86 WP MM NOT_NAMED 1986-08-28 18:00:00 TS 23.0000 160.000 1004 tokyo main 2322 2322 _O____________ -1 23.0000 160.000 2 1004 0 0 0 5 0
1986240N24160 1986 86 WP MM NOT_NAMED 1986-08-28 21:00:00 TS 22.7350 160.015 main 2344 2344 _P____________ -1 22.7350 160.015 2 1004 0 0 7 165
1986240N24160 1986 86 WP MM NOT_NAMED 1986-08-29 00:00:00 TS 22.3000 160.200 1004 tokyo main 2390 2390 _OO___________ -1 22.5000 160.000 2 1004 0 0 0 21.5000 161.000 0 19 1005 6 175
1986240N24160 1986 86 WP MM NOT_NAMED 1986-08-29 03:00:00 TS 22.1018 160.080 main 2397 2383 _PP___________ -1 22.3275 159.930 2 1003 0 0 21.6506 160.380 0 19 1004 5 234
1986240N24160 1986 86 WP MM NOT_NAMED 1986-08-29 06:00:00 TS 22.0286 159.800 1002 tokyo main 2383 2361 _OO___________ -1 22.2000 159.800 2 1002 0 0 0 21.8000 159.800 0 19 1003 6 261
1986240N24160 1986 86 WP MM NOT_NAMED 1986-08-29 09:00:00 TS 22.0098 159.465 main 2361 2331 _PP___________ -1 22.0699 159.645 2 1002 0 0 21.9497 159.285 0 19 1003 6 272
1986240N24160 1986 86 WP MM NOT_NAMED 1986-08-29 12:00:00 TS 22.0500 159.100 1002 tokyo main 2323 2294 _OO___________ -1 22.0000 159.400 2 1002 0 0 0 22.1000 158.800 0 19 1003 7 279
1986240N24160 1986 86 WP MM NOT_NAMED 1986-08-29 15:00:00 TS 22.1311 158.680 main 2294 2250 _PP___________ -1 22.0198 159.060 2 1001 0 0 22.2423 158.300 0 21 1002 9 283
1986240N24160 1986 86 WP MM NOT_NAMED 1986-08-29 18:00:00 TS 22.2500 158.200 1000 tokyo main 2242 2199 _OO___________ -1 22.1000 158.600 2 1000 0 0 0 22.4000 157.800 1 23 1002 9 286
1986240N24160 1986 86 WP MM NOT_NAMED 1986-08-29 21:00:00 TS 22.3921 157.695 main 2199 2148 _PP___________ -1 22.1771 158.067 2 1000 0 0 22.6071 157.323 1 26 1001 11 286
1986240N24160 1986 86 WP MM NOT_NAMED 1986-08-30 00:00:00 TS 22.5500 157.100 1000 tokyo main 2140 2083 _OO___________ -1 22.3000 157.400 2 1000 0 0 0 22.8000 156.800 1 29 1000 12 284
1986240N24160 1986 86 WP MM NOT_NAMED 1986-08-30 03:00:00 TS 22.6923 156.398 main 2083 2018 _PP___________ -1 22.4775 156.595 2 999 0 0 22.9071 156.202 1 29 999 14 282
1986240N24160 1986 86 WP MM NOT_NAMED 1986-08-30 06:00:00 TS 22.8500 155.600 998 tokyo main 2010 1946 _OO___________ -1 22.7000 155.700 2 998 0 0 0 23.0000 155.500 1 29 998 16 283
1986240N24160 1986 86 WP MM NOT_NAMED 1986-08-30 09:00:00 TS 23.0462 154.736 main 1939 1868 _PP___________ -1 22.9499 154.793 2 998 0 0 23.1425 154.680 1 29 998 17 284
1986240N24160 1986 86 WP MM NOT_NAMED 1986-08-30 12:00:00 TS 23.2500 153.850 998 tokyo main 1860 1798 _OO___________ -1 23.2000 153.900 2 998 0 0 0 23.3000 153.800 1 29 998 16 283
1986240N24160 1986 86 WP MM NOT_NAMED 1986-08-30 15:00:00 TS 23.4208 153.013 main 1792 1723 _PP___________ -1 23.3994 153.084 2 998 0 0 23.4422 152.942 1 29 998 16 283
1986240N24160 1986 86 WP MM NOT_NAMED 1986-08-30 18:00:00 TS 23.6000 152.200 998 tokyo main 1723 1655 _OO___________ -1 23.6000 152.300 2 998 0 0 0 23.6000 152.100 1 29 998 16 285
1986240N24160 1986 86 WP MM NOT_NAMED 1986-08-30 21:00:00 TS 23.8136 151.374 main 1655 1589 _PP___________ -1 23.8421 151.500 2 997 0 0 23.7851 151.248 1 29 997 15 287
1986240N24160 1986 86 WP MM NOT_NAMED 1986-08-31 00:00:00 TS 24.0500 150.600 996 tokyo main 1580 1526 _OO___________ -1 24.1000 150.700 2 996 0 0 0 24.0000 150.500 1 29 996 14 290
1986240N24160 1986 86 WP MM NOT_NAMED 1986-08-31 03:00:00 TS 24.2880 149.946 main 1520 1468 _PP___________ -1 24.3496 149.900 2 996 0 0 24.2264 149.992 1 29 996 13 293
1986240N24160 1986 86 WP MM NOT_NAMED 1986-08-31 06:00:00 TS 24.5500 149.300 996 tokyo main 1459 1401 _OO___________ -1 24.6000 149.100 2 996 0 0 0 24.5000 149.500 1 29 996 14 294
1986240N24160 1986 86 WP MM NOT_NAMED 1986-08-31 09:00:00 TS 24.8574 148.540 main 1386 1330 _PP___________ -1 24.8495 148.307 2 996 0 0 24.8653 148.773 1 29 996 15 293
1986240N24160 1986 86 WP MM NOT_NAMED 1986-08-31 12:00:00 TS 25.1500 147.750 996 tokyo main 1321 1269 _OO___________ -1 25.1000 147.500 2 996 0 0 0 25.2000 148.000 1 29 996 15 289
1986240N24160 1986 86 WP MM NOT_NAMED 1986-08-31 15:00:00 TS 25.3535 146.984 main 1259 1214 _PP___________ -1 25.3349 146.642 2 996 0 0 25.3721 147.327 1 29 996 14 286
1986240N24160 1986 86 WP MM NOT_NAMED 1986-08-31 18:00:00 TS 25.5500 146.250 996 tokyo main 1204 1152 _OO___________ -1 25.6000 145.800 2 996 0 0 0 25.5000 146.700 1 29 996 13 289
1986240N24160 1986 86 WP MM NOT_NAMED 1986-08-31 21:00:00 TS 25.7944 145.574 main 1152 1091 _PP___________ -1 25.9344 145.035 2 996 0 0 25.6544 146.114 1 29 996 13 294
1986240N24160 1986 86 WP MM NOT_NAMED 1986-09-01 00:00:00 TS 26.1000 144.900 996 tokyo main 1091 1022 _OO___________ -1 26.3000 144.300 2 996 0 0 0 25.9000 145.500 1 29 996 14 298
1986240N24160 1986 86 WP MM NOT_NAMED 1986-09-01 03:00:00 TS 26.4809 144.165 main 1022 952 _PP___________ -1 26.6350 143.520 2 995 0 0 26.3268 144.810 1 29 995 16 301
1986240N24160 1986 86 WP MM NOT_NAMED 1986-09-01 06:00:00 TS 26.9000 143.400 994 tokyo main 952 885 _OO___________ -1 27.0000 142.800 2 994 0 0 0 26.8000 144.000 1 29 994 16 300
1986240N24160 1986 86 WP MM NOT_NAMED 1986-09-01 09:00:00 TS 27.2816 142.591 main 885 824 _PP___________ -1 27.4345 142.205 2 994 0 0 27.1286 142.977 1 29 994 16 300
1986240N24160 1986 86 WP MM NOT_NAMED 1986-09-01 12:00:00 TS 27.7000 141.850 994 tokyo main 824 752 _OO___________ -1 27.9000 141.700 2 994 0 0 0 27.5000 142.000 1 29 994 15 308
1986240N24160 1986 86 WP MM NOT_NAMED 1986-09-01 15:00:00 TS 28.2057 141.268 main 752 684 _PP___________ -1 28.3423 141.227 2 994 0 0 28.0691 141.310 1 29 994 14 319
1986240N24160 1986 86 WP MM NOT_NAMED 1986-09-01 18:00:00 TS 28.7500 140.800 994 tokyo main 673 620 _OO___________ -1 28.8000 140.800 2 994 0 0 0 28.7000 140.800 1 29 994 13 323
1986240N24160 1986 86 WP MM NOT_NAMED 1986-09-01 21:00:00 TS 29.2711 140.362 main 610 547 _PP___________ -1 29.2924 140.377 2 994 0 0 29.2497 140.347 1 29 994 13 327
1986240N24160 1986 86 WP MM NOT_NAMED 1986-09-02 00:00:00 TS 29.8222 140.000 994 tokyo main 547 486 _OOO__________ -1 29.8000 140.000 2 994 0 0 0 29.8000 140.000 1 29 994 30.0000 140.000 TD 30 992 12 332
1986240N24160 1986 86 WP MM NOT_NAMED 1986-09-02 03:00:00 TS 30.3658 139.703 main 475 416 _PPP__________ -1 30.2923 139.684 2 993 0 0 30.4072 139.742 1 33 993 30.4301 139.660 TD 30 992 12 335
1986240N24160 1986 86 WP MM NOT_NAMED 1986-09-02 06:00:00 TS 30.9000 139.409 35 992 tokyo main 416 357 _OOO__________ -1 30.8000 139.400 3 35 992 0 1 425 75 0 31.0000 139.500 2 38 992 30.9000 139.300 TD 30 992 12 332
1986240N24160 1986 86 WP MM NOT_NAMED 1986-09-02 09:00:00 TS 31.4201 139.052 main 357 289 _PPP__________ -1 31.3199 139.100 3 35 992 0 1 425 100 31.4927 139.135 2 38 992 31.4476 138.920 TD 30 992 12 332
1986240N24160 1986 86 WP MM NOT_NAMED 1986-09-02 12:00:00 TS 32.0000 138.733 35 992 tokyo main 290 212 _OOO__________ -1 31.9000 138.800 3 35 992 0 1 425 125 0 32.0000 138.800 2 38 992 32.1000 138.600 TD 30 992 14 338
1986240N24160 1986 86 WP MM NOT_NAMED 1986-09-02 15:00:00 TS 32.7065 138.430 main 212 134 _PPP__________ -1 32.5925 138.390 3 35 992 0 1 325 125 32.6423 138.553 2 38 992 32.8848 138.346 TD 30 992 15 347
1986240N24160 1986 86 WP MM NOT_NAMED 1986-09-02 18:00:00 TS 33.4333 138.333 35 992 tokyo main 134 69 _OOO__________ -1 33.3000 138.200 3 35 992 0 1 225 125 0 33.3000 138.500 2 38 992 33.7000 138.300 TD 30 993 14 6
1986240N24160 1986 86 WP MM NOT_NAMED 1986-09-02 21:00:00 TS 34.0526 138.604 main 58 11 _PPP__________ -1 33.8854 138.544 3 994 0 1 33.8275 138.710 2 33 994 34.4450 138.559 TD 30 994 14 26
1986240N24160 1986 86 WP MM NOT_NAMED 1986-09-03 00:00:00 TS 34.6667 139.067 996 tokyo main 9 0 _OOO__________ -1 34.5000 139.100 2 996 0 0 0 34.4000 139.100 1 29 996 35.1000 139.000 TD 30 996 14 30
1986240N24160 1986 86 WP MM NOT_NAMED 1986-09-03 03:00:00 TS 35.3089 139.472 main 0 0 _PPP__________ -1 35.2319 139.473 2 996 0 0 35.1325 139.521 1 29 996 35.5623 139.422 TD 30 996 16 27
1986240N24160 1986 86 WP MM NOT_NAMED 1986-09-03 06:00:00 TS 36.0667 139.933 997 tokyo main 0 0 _OOO__________ -1 36.1000 139.900 2 997 0 0 0 36.0000 140.000 1 29 997 36.1000 139.900 TD 30 997 19 25
1986240N24160 1986 86 WP MM NOT_NAMED 1986-09-03 09:00:00 TS 36.9913 140.452 main 0 0 _PPP__________ -1 37.0971 140.477 2 997 0 0 36.9319 140.458 1 26 997 36.9449 140.421 TD 28 997 22 24
1986240N24160 1986 86 WP MM NOT_NAMED 1986-09-03 12:00:00 TS 38.0800 141.080 998 tokyo main 17 0 _OOO__________ -1 38.2000 141.200 2 998 0 0 0 38.0000 141.000 1 23 998 38.0000 141.000 TD 27 998 26 25
1986240N24160 1986 86 WP MM NOT_NAMED 1986-09-03 15:00:00 TS 39.3310 141.853 main 0 0 _PPP__________ -1 39.4696 142.043 2 998 0 0 39.2114 141.695 1 23 998 39.1732 141.630 TD 26 998 27 29
1986240N24160 1986 86 WP MM NOT_NAMED 1986-09-03 18:00:00 TS 40.4833 142.800 998 tokyo main 87 87 _OOO__________ -1 40.5000 143.000 2 998 0 0 0 40.5000 142.500 1 23 998 40.4000 142.300 TD 25 998 22 46
1986240N24160 1986 86 WP MM NOT_NAMED 1986-09-03 21:00:00 TS 40.8833 143.954 main 129 129 _P____________ -1 40.8833 143.954 2 998 0 0 1 TD 17 73
1986240N24160 1986 86 WP MM NOT_NAMED 1986-09-04 00:00:00 ET 41.0000 145.000 998 tokyo main 179 179 _O____________ -1 41.0000 145.000 6 998 0 0 0 17 78
1986240N24160 1986 86 WP MM NOT_NAMED 1986-09-04 03:00:00 ET 41.2498 146.213 main 221 216 _P____________ -1 41.2498 146.213 6 997 0 0 19 75
1986240N24160 1986 86 WP MM NOT_NAMED 1986-09-04 06:00:00 ET 41.5000 147.500 996 tokyo main 250 250 _O____________ -1 41.5000 147.500 6 996 0 0 0 20 75
1986240N24160 1986 86 WP MM NOT_NAMED 1986-09-04 09:00:00 ET 41.7882 148.823 main 309 309 _P____________ -1 41.7882 148.823 6 996 0 0 19 75
1986240N24160 1986 86 WP MM NOT_NAMED 1986-09-04 12:00:00 ET 42.0000 150.000 996 tokyo main 366 366 _O____________ -1 42.0000 150.000 6 996 0 0 0 15 79
1986240N24160 1986 86 WP MM NOT_NAMED 1986-09-04 15:00:00 ET 42.0727 150.826 main 390 390 _P____________ -1 42.0727 150.826 6 996 0 0 11 90
1986240N24160 1986 86 WP MM NOT_NAMED 1986-09-04 18:00:00 ET 42.0000 151.500 996 tokyo main 425 425 _O____________ -1 42.0000 151.500 6 996 0 0 0 11 106
1986240N24160 1986 86 WP MM NOT_NAMED 1986-09-04 21:00:00 ET 41.7862 152.213 main 467 467 _P____________ -1 41.7862 152.213 6 996 0 0 12 114
1986240N24160 1986 86 WP MM NOT_NAMED 1986-09-05 00:00:00 ET 41.5000 153.000 996 tokyo main 527 527 _O____________ -1 41.5000 153.000 6 996 0 0 0 14 111
1986240N24160 1986 86 WP MM NOT_NAMED 1986-09-05 03:00:00 ET 41.2875 153.961 main 589 589 _P____________ -1 41.2875 153.961 6 996 0 0 16 108
1986240N24160 1986 86 WP MM NOT_NAMED 1986-09-05 06:00:00 ET 41.0000 155.000 996 tokyo main 666 666 _O____________ -1 41.0000 155.000 6 996 0 0 0 17 117
1986240N24160 1986 86 WP MM NOT_NAMED 1986-09-05 09:00:00 ET 40.4991 156.002 main 762 762 _P____________ -1 40.4991 156.002 6 998 0 0 18 123
1986240N24160 1986 86 WP MM NOT_NAMED 1986-09-05 12:00:00 ET 40.0000 157.000 1000 tokyo main 858 858 _O____________ -1 40.0000 157.000 6 1000 0 0 0 17 117
1986240N24160 1986 86 WP MM NOT_NAMED 1986-09-05 15:00:00 ET 39.7117 157.998 main 938 938 _P____________ -1 39.7117 157.998 6 1000 0 0 16 108
1986240N24160 1986 86 WP MM NOT_NAMED 1986-09-05 18:00:00 ET 39.5000 159.000 1000 tokyo main 1010 1010 _O____________ -1 39.5000 159.000 6 1000 0 0 0 15 109
1986240N24160 1986 86 WP MM NOT_NAMED 1986-09-05 21:00:00 ET 39.2064 159.851 main 1087 1087 _P____________ -1 39.2064 159.851 6 1000 0 0 16 108
1986240N24160 1986 86 WP MM NOT_NAMED 1986-09-06 00:00:00 ET 39.0000 161.000 1000 tokyo main 1168 1168 _O____________ -1 39.0000 161.000 6 1000 0 0 0 24 96
1986240N24160 1986 86 WP MM NOT_NAMED 1986-09-06 03:00:00 ET 38.9690 162.923 main 1287 1287 _P____________ -1 38.9690 162.923 6 1000 0 0 31 90
1986240N24160 1986 86 WP MM NOT_NAMED 1986-09-06 06:00:00 ET 39.0000 165.000 1000 tokyo main 1426 1426 _O____________ -1 39.0000 165.000 6 1000 0 0 0 28 89
1986240N24160 1986 86 WP MM NOT_NAMED 1986-09-06 09:00:00 ET 38.9949 166.575 main 1500 1500 _P____________ -1 38.9949 166.575 6 1001 0 0 23 90
1986240N24160 1986 86 WP MM NOT_NAMED 1986-09-06 12:00:00 ET 39.0000 168.000 1002 tokyo main 1564 1564 _O____________ -1 39.0000 168.000 6 1002 0 0 0 23 90
1986240N24160 1986 86 WP MM NOT_NAMED 1986-09-06 15:00:00 ET 39.0006 169.575 main 1643 1643 _P____________ -1 39.0006 169.575 6 1002 0 0 23 90
1986240N24160 1986 86 WP MM NOT_NAMED 1986-09-06 18:00:00 ET 39.0000 171.000 1002 tokyo main 1716 1716 _O____________ -1 39.0000 171.000 6 1002 0 0 0 19 90
1986240N24160 1986 86 WP MM NOT_NAMED 1986-09-06 21:00:00 ET 38.9969 172.075 main 1776 1776 _P____________ -1 38.9969 172.075 6 1003 0 0 16 90
1986240N24160 1986 86 WP MM NOT_NAMED 1986-09-07 00:00:00 ET 39.0000 173.000 1004 tokyo main 1821 1821 _O____________ -1 39.0000 173.000 6 1004 0 0 0 15 90
1986240N24160 1986 86 WP MM NOT_NAMED 1986-09-07 03:00:00 ET 38.9991 174.000 main 1871 1871 _P____________ -1 38.9991 174.000 6 1006 0 0 16 90
1986240N24160 1986 86 WP MM NOT_NAMED 1986-09-07 06:00:00 ET 39.0000 175.000 1008 tokyo main 1923 1923 _O____________ -1 39.0000 175.000 6 1008 0 0 0 16 90
1986240N24160 1986 86 WP MM NOT_NAMED 1986-09-07 09:00:00 ET 38.9991 176.000 main 1924 1884 _P____________ -1 38.9991 176.000 6 1010 0 0 16 90
1986240N24160 1986 86 WP MM NOT_NAMED 1986-09-07 12:00:00 ET 39.0000 177.000 1012 tokyo main 1880 1842 _O____________ -1 39.0000 177.000 6 1012 0 0 0 16 90
1986240N24160 1986 86 WP MM NOT_NAMED 1986-09-07 15:00:00 ET 39.0017 178.000 main 1838 1801 _P____________ -1 39.0017 178.000 6 1014 0 0 16 90
1986240N24160 1986 86 WP MM NOT_NAMED 1986-09-07 18:00:00 ET 39.0000 179.000 1016 tokyo main 1798 _O____________ -1 39.0000 179.000 6 1016 0 0 0 16 90

Digital Typhoon Data and Search

About IBTrACS Database

This database is a web-friendly format of International Best Track Archive for Climate Stewardship (IBTrACS), a global best track data archive curated by NOAA dating back to 1842.

Updated: 2021-11-26